Overview Statistics Trail Chart Weather Telemetry Raw packets
 

This is the latest recevied weather packets stored in our database for station/object EA4URC-13. If no packets are shown the sender has not sent any weather packets the latest 10 day(s).

<< 3 4 5 6 7 8 9 >>
Time Temp. Humidity Pressure Rain* Wind** Luminosity Snow
1788511095 28.33° C 19% 1017.3 hPa - - - -
1788510195 27.78° C 21% 1017.6 hPa - - - -
1788509295 27.22° C 21% 1017.7 hPa - - - -
1788508395 26.11° C 23% 1018 hPa - - - -
1788507495 26.11° C 23% 1018.1 hPa - - - -
1788506595 25° C 24% 1018.4 hPa - - - -
1788505695 24.44° C 24% 1018.8 hPa - - - -
1788504795 23.33° C 23% 1019 hPa - - - -
1788503895 23.33° C 32% 1019.1 hPa - - - -
1788502719 22.22° C 36% 1019.6 hPa - - - -
1788501819 22.22° C 36% 1019.5 hPa - - - -
1788500919 22.22° C 34% 1019.4 hPa - - - -
1788500019 22.22° C 30% 1019.2 hPa - - - -
1788499119 22.78° C 30% 1019 hPa - - - -
1788498219 22.78° C 30% 1018.9 hPa - - - -
1788497319 22.78° C 33% 1019 hPa - - - -
1788496419 22.78° C 32% 1018.8 hPa - - - -
1788495519 22.78° C 32% 1018.9 hPa - - - -
1788494619 22.78° C 31% 1018.8 hPa - - - -
1788493719 22.78° C 32% 1018.9 hPa - - - -
1788492819 21.67° C 37% 1019.3 hPa - - - -
1788491919 22.78° C 36% 1019 hPa - - - -
1788491019 22.22° C 36% 1019.3 hPa - - - -
1788490119 21.11° C 41% 1019.8 hPa - - - -
1788489219 21.67° C 41% 1019.7 hPa - - - -

* Rain since midnight (hover to see other rain measurements)
** Current wind speed in m/s (hover to see current wind gust speed)